New Chitose Airport
RJCC : now visible

Airfield :











YOU CAN JOIN US ON...

 
LOGIN :

Register | Disclaimer

   EN    FR    IT 

 









Legend :    VFR   Marginal VFR   IFR   Intensive IFR   Very Intensive IFR
Visi :
Ceiling :
>= 8 km
>= 3000ft
5 to 8 km
1000 to 3000 ft
1500m to 5 km
500 to 1000 ft
800 to 1500m
200 to 500 ft
< 800m
< 200 ft
Symbols :   Thunderstorms  Fog  Heavy snow  Heavy precipitations  Wind > 20 kt






- Airport Elevation : 82 ft
- IATA code : CTS


RJCC - New Chitose

CURRENT METAR :
  • 280739Z 01006KT 2300 -SHSN FEW005 SCT008 BKN040 M02/M02 Q1020 RMK 1ST005 4ST008 6CU040 A3013

EXPIRED METARs :
  • 280730Z 01006KT 2500 R01L/P2000N R01R/P2000N -SHSN FEW005 SCT015 BKN040 M02/M02 Q1020 RMK 1ST005 3ST015 6CU040 A3013
  • 280642Z 34009KT 1400 R01L/P2000N R01R/P2000N -SHSN FEW006 BKN020 BKN040 M01/M02 Q1020 RMK 1ST006 5CU020 7CU040 A3013
  • 280630Z 01007KT 4900 -SHSN FEW010 SCT030 BKN040 00/M06 Q1020 RMK 1ST010 3CU030 7CU040 A3013
  • 280600Z 05004KT 020V100 9999 FEW015 BKN050 00/M06 Q1020 RMK 1ST015 7CU050 A3012
  • 280530Z VRB02KT 9999 FEW015 SCT050 BKN080 00/M06 Q1020 RMK 1ST015 3CU050 6AC080 A3012
  • 280500Z 13004KT 100V170 9999 -SHSN FEW015 SCT035 BKN050 00/M05 Q1020

TAF AMD TAF RJCC
Valid from the 28 at 06:00 until the 29 at 12:00 UTC


280637Z 2806/2912 36010KT 6000 -SHSN FEW008 BKN015
TEMPO 2806/2810 0500 SHSN VV003
TEMPO 2810/2812 2000 -SHSN FEW003 BKN006
BECMG 2906/2909 16005KT
TEMPO 2909/2912 1500 -SHSN FEW003 BKN005



MET'MAP, your aeronautical weather chart ! - Copyright ORBIFLY December 2007 - Disclaimer

ORBIFLY MET'MAP TEAM :

Programming & Development : Alexandra Zaïnal
Concept & original design : Baudouin d'Aumeries
Assistance for programming : Marc-Olivier Méhu
Technical & hardware support : Manuel Goepfert

Contact : metmap@orbifly.com




SOURCES & CREDITS :

   NOAA       Earth
Advisory